sensor_id;sensor_type;location;lat;lon;timestamp;P1;durP1;ratioP1;P2;durP2;ratioP2
76379;SDS011;65201;21.060;105.826;2023-05-02T00:02:19;24.17;;;13.13;;
76379;SDS011;65201;21.060;105.826;2023-05-02T00:04:45;29.25;;;12.88;;
76379;SDS011;65201;21.060;105.826;2023-05-02T00:07:11;27.60;;;13.73;;
76379;SDS011;65201;21.060;105.826;2023-05-02T00:09:38;22.60;;;12.40;;
76379;SDS011;65201;21.060;105.826;2023-05-02T00:12:04;22.65;;;12.52;;
76379;SDS011;65201;21.060;105.826;2023-05-02T00:14:30;21.55;;;12.32;;
76379;SDS011;65201;21.060;105.826;2023-05-02T00:16:56;20.60;;;12.52;;
76379;SDS011;65201;21.060;105.826;2023-05-02T00:19:22;23.27;;;12.60;;
76379;SDS011;65201;21.060;105.826;2023-05-02T00:21:48;20.42;;;11.82;;
76379;SDS011;65201;21.060;105.826;2023-05-02T00:24:16;21.45;;;11.82;;
76379;SDS011;65201;21.060;105.826;2023-05-02T00:26:42;20.02;;;12.15;;
76379;SDS011;65201;21.060;105.826;2023-05-02T00:29:08;17.17;;;12.48;;
76379;SDS011;65201;21.060;105.826;2023-05-02T00:31:34;24.97;;;12.97;;
76379;SDS011;65201;21.060;105.826;2023-05-02T00:34:01;19.42;;;12.00;;
76379;SDS011;65201;21.060;105.826;2023-05-02T00:36:27;22.50;;;12.68;;
76379;SDS011;65201;21.060;105.826;2023-05-02T00:38:53;20.38;;;12.40;;
76379;SDS011;65201;21.060;105.826;2023-05-02T00:41:19;20.33;;;12.52;;
76379;SDS011;65201;21.060;105.826;2023-05-02T00:43:45;25.93;;;12.67;;
76379;SDS011;65201;21.060;105.826;2023-05-02T00:46:11;26.95;;;12.23;;
76379;SDS011;65201;21.060;105.826;2023-05-02T00:48:38;21.38;;;12.50;;
76379;SDS011;65201;21.060;105.826;2023-05-02T00:51:04;25.52;;;12.85;;
76379;SDS011;65201;21.060;105.826;2023-05-02T00:53:33;22.08;;;12.32;;
76379;SDS011;65201;21.060;105.826;2023-05-02T00:56:00;20.27;;;12.13;;
76379;SDS011;65201;21.060;105.826;2023-05-02T00:58:29;20.10;;;11.80;;
76379;SDS011;65201;21.060;105.826;2023-05-02T01:05:58;25.30;;;12.32;;
76379;SDS011;65201;21.060;105.826;2023-05-02T01:08:33;19.20;;;11.50;;
76379;SDS011;65201;21.060;105.826;2023-05-02T01:11:05;19.98;;;11.85;;
76379;SDS011;65201;21.060;105.826;2023-05-02T01:13:36;19.30;;;11.15;;
76379;SDS011;65201;21.060;105.826;2023-05-02T01:16:03;21.10;;;12.43;;
76379;SDS011;65201;21.060;105.826;2023-05-02T01:18:31;20.88;;;11.85;;
76379;SDS011;65201;21.060;105.826;2023-05-02T01:21:06;24.07;;;12.20;;
76379;SDS011;65201;21.060;105.826;2023-05-02T01:31:23;19.52;;;12.63;;
76379;SDS011;65201;21.060;105.826;2023-05-02T01:33:51;21.43;;;12.73;;
76379;SDS011;65201;21.060;105.826;2023-05-02T01:36:18;20.50;;;12.50;;
76379;SDS011;65201;21.060;105.826;2023-05-02T01:38:45;18.95;;;12.10;;
76379;SDS011;65201;21.060;105.826;2023-05-02T01:41:12;19.85;;;12.82;;
76379;SDS011;65201;21.060;105.826;2023-05-02T01:43:38;23.67;;;12.40;;
76379;SDS011;65201;21.060;105.826;2023-05-02T01:46:05;30.50;;;14.00;;
76379;SDS011;65201;21.060;105.826;2023-05-02T01:48:34;28.25;;;14.23;;
76379;SDS011;65201;21.060;105.826;2023-05-02T01:51:00;21.10;;;13.30;;
76379;SDS011;65201;21.060;105.826;2023-05-02T01:53:27;27.23;;;13.30;;
76379;SDS011;65201;21.060;105.826;2023-05-02T01:55:54;26.60;;;13.95;;
76379;SDS011;65201;21.060;105.826;2023-05-02T01:58:21;26.80;;;14.17;;
76379;SDS011;65201;21.060;105.826;2023-05-02T02:00:48;20.27;;;13.27;;
76379;SDS011;65201;21.060;105.826;2023-05-02T02:03:15;20.52;;;13.05;;
76379;SDS011;65201;21.060;105.826;2023-05-02T02:05:42;26.55;;;14.38;;
76379;SDS011;65201;21.060;105.826;2023-05-02T02:08:09;27.05;;;13.90;;
76379;SDS011;65201;21.060;105.826;2023-05-02T02:10:36;27.63;;;13.97;;
76379;SDS011;65201;21.060;105.826;2023-05-02T02:13:06;28.75;;;14.32;;
76379;SDS011;65201;21.060;105.826;2023-05-02T02:15:38;25.98;;;15.27;;
76379;SDS011;65201;21.060;105.826;2023-05-02T02:18:17;26.08;;;14.77;;
76379;SDS011;65201;21.060;105.826;2023-05-02T02:20:46;27.02;;;15.30;;
76379;SDS011;65201;21.060;105.826;2023-05-02T02:23:13;22.37;;;14.47;;
76379;SDS011;65201;21.060;105.826;2023-05-02T02:25:40;23.60;;;15.13;;
76379;SDS011;65201;21.060;105.826;2023-05-02T02:28:07;34.00;;;15.88;;
76379;SDS011;65201;21.060;105.826;2023-05-02T02:30:33;27.15;;;15.23;;
76379;SDS011;65201;21.060;105.826;2023-05-02T02:32:59;28.92;;;14.93;;
76379;SDS011;65201;21.060;105.826;2023-05-02T02:35:27;35.10;;;16.63;;
76379;SDS011;65201;21.060;105.826;2023-05-02T02:37:58;23.75;;;14.80;;
76379;SDS011;65201;21.060;105.826;2023-05-02T02:40:28;30.83;;;15.45;;
76379;SDS011;65201;21.060;105.826;2023-05-02T02:43:02;27.80;;;15.35;;
76379;SDS011;65201;21.060;105.826;2023-05-02T02:45:34;27.40;;;15.05;;
76379;SDS011;65201;21.060;105.826;2023-05-02T02:48:07;31.67;;;16.00;;
76379;SDS011;65201;21.060;105.826;2023-05-02T02:50:37;30.52;;;16.38;;
76379;SDS011;65201;21.060;105.826;2023-05-02T02:53:13;27.70;;;16.35;;
76379;SDS011;65201;21.060;105.826;2023-05-02T02:56:04;31.05;;;16.48;;
76379;SDS011;65201;21.060;105.826;2023-05-02T03:01:01;28.63;;;16.63;;
76379;SDS011;65201;21.060;105.826;2023-05-02T03:03:28;31.95;;;16.75;;
76379;SDS011;65201;21.060;105.826;2023-05-02T03:05:55;28.55;;;16.25;;
76379;SDS011;65201;21.060;105.826;2023-05-02T03:08:21;30.20;;;17.42;;
76379;SDS011;65201;21.060;105.826;2023-05-02T03:10:47;31.02;;;16.90;;
76379;SDS011;65201;21.060;105.826;2023-05-02T03:13:14;26.00;;;15.97;;
76379;SDS011;65201;21.060;105.826;2023-05-02T03:15:59;30.95;;;17.50;;
76379;SDS011;65201;21.060;105.826;2023-05-02T03:18:26;29.67;;;17.08;;
76379;SDS011;65201;21.060;105.826;2023-05-02T03:20:52;33.85;;;16.20;;
76379;SDS011;65201;21.060;105.826;2023-05-02T03:23:18;29.98;;;16.88;;
76379;SDS011;65201;21.060;105.826;2023-05-02T03:25:45;34.60;;;17.60;;
76379;SDS011;65201;21.060;105.826;2023-05-02T03:28:11;31.08;;;17.40;;
76379;SDS011;65201;21.060;105.826;2023-05-02T03:30:37;33.20;;;17.40;;
76379;SDS011;65201;21.060;105.826;2023-05-02T03:33:05;32.90;;;17.23;;
76379;SDS011;65201;21.060;105.826;2023-05-02T03:35:33;26.27;;;17.38;;
76379;SDS011;65201;21.060;105.826;2023-05-02T03:37:59;28.30;;;17.23;;
76379;SDS011;65201;21.060;105.826;2023-05-02T03:40:26;30.70;;;18.00;;
76379;SDS011;65201;21.060;105.826;2023-05-02T03:42:52;32.08;;;18.10;;
76379;SDS011;65201;21.060;105.826;2023-05-02T03:45:19;30.15;;;17.13;;
76379;SDS011;65201;21.060;105.826;2023-05-02T03:47:45;35.50;;;17.95;;
76379;SDS011;65201;21.060;105.826;2023-05-02T03:50:11;34.20;;;17.43;;
76379;SDS011;65201;21.060;105.826;2023-05-02T03:52:37;30.33;;;17.35;;
76379;SDS011;65201;21.060;105.826;2023-05-02T03:55:06;31.85;;;17.25;;
76379;SDS011;65201;21.060;105.826;2023-05-02T03:57:32;31.45;;;16.83;;
76379;SDS011;65201;21.060;105.826;2023-05-02T03:59:59;31.77;;;17.35;;
76379;SDS011;65201;21.060;105.826;2023-05-02T04:02:25;35.87;;;17.03;;
76379;SDS011;65201;21.060;105.826;2023-05-02T04:05:01;28.05;;;16.92;;
76379;SDS011;65201;21.060;105.826;2023-05-02T04:07:27;34.60;;;16.70;;
76379;SDS011;65201;21.060;105.826;2023-05-02T04:09:53;34.92;;;17.38;;
76379;SDS011;65201;21.060;105.826;2023-05-02T04:12:19;28.13;;;16.42;;
76379;SDS011;65201;21.060;105.826;2023-05-02T04:14:45;29.30;;;17.40;;
76379;SDS011;65201;21.060;105.826;2023-05-02T04:17:12;32.20;;;16.88;;
76379;SDS011;65201;21.060;105.826;2023-05-02T04:19:40;32.25;;;16.83;;
76379;SDS011;65201;21.060;105.826;2023-05-02T04:22:06;29.15;;;17.02;;
76379;SDS011;65201;21.060;105.826;2023-05-02T04:24:32;30.95;;;17.10;;
76379;SDS011;65201;21.060;105.826;2023-05-02T04:26:58;28.87;;;16.17;;
76379;SDS011;65201;21.060;105.826;2023-05-02T04:29:24;32.60;;;16.75;;
76379;SDS011;65201;21.060;105.826;2023-05-02T04:31:51;30.23;;;17.35;;
76379;SDS011;65201;21.060;105.826;2023-05-02T04:34:18;31.55;;;17.48;;
76379;SDS011;65201;21.060;105.826;2023-05-02T04:36:44;34.05;;;17.27;;
76379;SDS011;65201;21.060;105.826;2023-05-02T04:39:13;28.80;;;16.57;;
76379;SDS011;65201;21.060;105.826;2023-05-02T04:41:40;29.60;;;17.08;;
76379;SDS011;65201;21.060;105.826;2023-05-02T04:44:07;30.90;;;16.80;;
76379;SDS011;65201;21.060;105.826;2023-05-02T04:46:36;32.78;;;16.83;;
76379;SDS011;65201;21.060;105.826;2023-05-02T04:49:03;32.63;;;17.10;;
76379;SDS011;65201;21.060;105.826;2023-05-02T04:51:29;29.17;;;16.33;;
76379;SDS011;65201;21.060;105.826;2023-05-02T04:53:56;28.92;;;16.35;;
76379;SDS011;65201;21.060;105.826;2023-05-02T04:56:22;30.33;;;16.02;;
76379;SDS011;65201;21.060;105.826;2023-05-02T04:58:48;31.48;;;16.40;;
76379;SDS011;65201;21.060;105.826;2023-05-02T05:01:14;31.75;;;17.60;;
76379;SDS011;65201;21.060;105.826;2023-05-02T05:03:41;33.20;;;16.87;;
76379;SDS011;65201;21.060;105.826;2023-05-02T05:06:07;33.72;;;17.83;;
76379;SDS011;65201;21.060;105.826;2023-05-02T05:08:33;32.70;;;16.35;;
76379;SDS011;65201;21.060;105.826;2023-05-02T05:11:00;26.08;;;16.88;;
76379;SDS011;65201;21.060;105.826;2023-05-02T05:13:26;31.02;;;16.23;;
76379;SDS011;65201;21.060;105.826;2023-05-02T05:15:52;35.27;;;16.13;;
76379;SDS011;65201;21.060;105.826;2023-05-02T05:18:19;28.63;;;15.63;;
76379;SDS011;65201;21.060;105.826;2023-05-02T05:20:45;29.60;;;16.27;;
76379;SDS011;65201;21.060;105.826;2023-05-02T05:23:11;28.98;;;16.15;;
76379;SDS011;65201;21.060;105.826;2023-05-02T05:25:38;26.70;;;14.85;;
76379;SDS011;65201;21.060;105.826;2023-05-02T05:28:04;28.70;;;15.07;;
76379;SDS011;65201;21.060;105.826;2023-05-02T05:30:31;27.08;;;15.68;;
76379;SDS011;65201;21.060;105.826;2023-05-02T05:32:57;28.20;;;15.27;;
76379;SDS011;65201;21.060;105.826;2023-05-02T05:35:23;32.20;;;15.43;;
76379;SDS011;65201;21.060;105.826;2023-05-02T05:37:50;24.05;;;14.88;;
76379;SDS011;65201;21.060;105.826;2023-05-02T05:40:16;25.70;;;13.70;;
76379;SDS011;65201;21.060;105.826;2023-05-02T05:42:42;25.80;;;13.85;;
76379;SDS011;65201;21.060;105.826;2023-05-02T05:45:08;21.10;;;13.57;;
76379;SDS011;65201;21.060;105.826;2023-05-02T05:47:35;25.40;;;13.88;;
76379;SDS011;65201;21.060;105.826;2023-05-02T05:50:01;20.33;;;13.50;;
76379;SDS011;65201;21.060;105.826;2023-05-02T05:52:27;18.10;;;13.57;;
76379;SDS011;65201;21.060;105.826;2023-05-02T05:54:53;23.45;;;13.68;;
76379;SDS011;65201;21.060;105.826;2023-05-02T05:57:23;22.33;;;13.75;;
76379;SDS011;65201;21.060;105.826;2023-05-02T05:59:49;20.75;;;13.02;;
76379;SDS011;65201;21.060;105.826;2023-05-02T06:02:16;21.90;;;13.48;;
76379;SDS011;65201;21.060;105.826;2023-05-02T06:04:44;24.20;;;13.13;;
76379;SDS011;65201;21.060;105.826;2023-05-02T06:07:11;23.55;;;12.82;;
76379;SDS011;65201;21.060;105.826;2023-05-02T06:09:37;21.58;;;12.57;;
76379;SDS011;65201;21.060;105.826;2023-05-02T06:12:03;21.02;;;12.82;;
76379;SDS011;65201;21.060;105.826;2023-05-02T06:14:29;20.40;;;12.50;;
76379;SDS011;65201;21.060;105.826;2023-05-02T06:16:57;18.43;;;12.20;;
76379;SDS011;65201;21.060;105.826;2023-05-02T06:19:23;19.52;;;12.02;;
76379;SDS011;65201;21.060;105.826;2023-05-02T06:21:50;19.65;;;12.52;;
76379;SDS011;65201;21.060;105.826;2023-05-02T06:24:16;20.58;;;12.30;;
76379;SDS011;65201;21.060;105.826;2023-05-02T06:26:42;23.88;;;11.90;;
76379;SDS011;65201;21.060;105.826;2023-05-02T06:29:08;18.43;;;12.10;;
76379;SDS011;65201;21.060;105.826;2023-05-02T06:31:35;17.85;;;11.70;;
76379;SDS011;65201;21.060;105.826;2023-05-02T06:34:01;20.02;;;12.25;;
76379;SDS011;65201;21.060;105.826;2023-05-02T06:36:28;19.13;;;12.05;;
76379;SDS011;65201;21.060;105.826;2023-05-02T06:38:54;20.48;;;11.80;;
76379;SDS011;65201;21.060;105.826;2023-05-02T06:41:20;20.60;;;12.00;;
76379;SDS011;65201;21.060;105.826;2023-05-02T06:43:46;18.33;;;11.43;;
76379;SDS011;65201;21.060;105.826;2023-05-02T06:46:12;18.05;;;11.98;;
76379;SDS011;65201;21.060;105.826;2023-05-02T06:48:39;18.15;;;11.13;;
76379;SDS011;65201;21.060;105.826;2023-05-02T06:51:05;17.20;;;11.68;;
76379;SDS011;65201;21.060;105.826;2023-05-02T06:53:31;17.73;;;10.83;;
76379;SDS011;65201;21.060;105.826;2023-05-02T06:55:58;18.70;;;11.00;;
76379;SDS011;65201;21.060;105.826;2023-05-02T06:58:24;17.13;;;11.23;;
76379;SDS011;65201;21.060;105.826;2023-05-02T07:00:51;17.90;;;11.02;;
76379;SDS011;65201;21.060;105.826;2023-05-02T07:03:17;18.27;;;11.15;;
76379;SDS011;65201;21.060;105.826;2023-05-02T07:05:43;17.30;;;10.73;;
76379;SDS011;65201;21.060;105.826;2023-05-02T07:08:09;18.85;;;11.10;;
76379;SDS011;65201;21.060;105.826;2023-05-02T07:10:36;18.15;;;10.73;;
76379;SDS011;65201;21.060;105.826;2023-05-02T07:13:02;18.38;;;11.32;;
76379;SDS011;65201;21.060;105.826;2023-05-02T07:15:28;17.48;;;11.00;;
76379;SDS011;65201;21.060;105.826;2023-05-02T07:17:54;17.40;;;11.20;;
76379;SDS011;65201;21.060;105.826;2023-05-02T07:20:20;19.98;;;11.05;;
76379;SDS011;65201;21.060;105.826;2023-05-02T07:22:46;18.88;;;11.32;;
76379;SDS011;65201;21.060;105.826;2023-05-02T07:25:12;21.58;;;12.15;;
76379;SDS011;65201;21.060;105.826;2023-05-02T07:27:39;18.83;;;11.63;;
76379;SDS011;65201;21.060;105.826;2023-05-02T07:30:05;20.67;;;11.80;;
76379;SDS011;65201;21.060;105.826;2023-05-02T07:32:31;21.65;;;12.07;;
76379;SDS011;65201;21.060;105.826;2023-05-02T07:34:57;21.00;;;11.55;;
76379;SDS011;65201;21.060;105.826;2023-05-02T07:37:24;16.75;;;11.10;;
76379;SDS011;65201;21.060;105.826;2023-05-02T07:39:50;20.98;;;12.55;;
76379;SDS011;65201;21.060;105.826;2023-05-02T07:42:16;21.20;;;11.73;;
76379;SDS011;65201;21.060;105.826;2023-05-02T07:44:42;20.02;;;12.68;;
76379;SDS011;65201;21.060;105.826;2023-05-02T07:47:08;20.55;;;11.88;;
76379;SDS011;65201;21.060;105.826;2023-05-02T07:49:34;19.23;;;12.00;;
76379;SDS011;65201;21.060;105.826;2023-05-02T07:52:01;18.17;;;12.10;;
76379;SDS011;65201;21.060;105.826;2023-05-02T07:54:27;20.00;;;11.87;;
76379;SDS011;65201;21.060;105.826;2023-05-02T07:56:54;22.40;;;12.27;;
76379;SDS011;65201;21.060;105.826;2023-05-02T07:59:23;20.05;;;12.45;;
76379;SDS011;65201;21.060;105.826;2023-05-02T08:01:49;20.13;;;12.38;;
76379;SDS011;65201;21.060;105.826;2023-05-02T08:04:15;28.48;;;12.73;;
76379;SDS011;65201;21.060;105.826;2023-05-02T08:06:43;22.20;;;12.57;;
76379;SDS011;65201;21.060;105.826;2023-05-02T08:09:09;26.17;;;13.02;;
76379;SDS011;65201;21.060;105.826;2023-05-02T08:11:35;24.25;;;13.00;;
76379;SDS011;65201;21.060;105.826;2023-05-02T08:14:04;20.85;;;12.10;;
76379;SDS011;65201;21.060;105.826;2023-05-02T08:16:31;21.30;;;11.85;;
76379;SDS011;65201;21.060;105.826;2023-05-02T08:19:00;20.90;;;12.70;;
76379;SDS011;65201;21.060;105.826;2023-05-02T08:21:26;17.67;;;11.35;;
76379;SDS011;65201;21.060;105.826;2023-05-02T08:23:55;27.88;;;13.93;;
76379;SDS011;65201;21.060;105.826;2023-05-02T08:26:22;21.48;;;12.50;;
76379;SDS011;65201;21.060;105.826;2023-05-02T08:28:51;19.80;;;12.45;;
76379;SDS011;65201;21.060;105.826;2023-05-02T08:31:18;24.33;;;11.53;;
76379;SDS011;65201;21.060;105.826;2023-05-02T08:33:44;20.52;;;12.48;;
76379;SDS011;65201;21.060;105.826;2023-05-02T08:36:11;24.67;;;12.73;;
76379;SDS011;65201;21.060;105.826;2023-05-02T08:38:37;20.20;;;11.80;;
76379;SDS011;65201;21.060;105.826;2023-05-02T08:41:16;21.15;;;12.80;;
76379;SDS011;65201;21.060;105.826;2023-05-02T08:43:43;20.07;;;12.20;;
76379;SDS011;65201;21.060;105.826;2023-05-02T08:46:10;23.65;;;12.85;;
76379;SDS011;65201;21.060;105.826;2023-05-02T08:48:37;25.75;;;12.95;;
76379;SDS011;65201;21.060;105.826;2023-05-02T08:51:07;24.45;;;13.02;;
76379;SDS011;65201;21.060;105.826;2023-05-02T08:53:34;25.30;;;12.80;;
76379;SDS011;65201;21.060;105.826;2023-05-02T08:56:00;24.33;;;12.63;;
76379;SDS011;65201;21.060;105.826;2023-05-02T08:58:27;24.60;;;12.63;;
76379;SDS011;65201;21.060;105.826;2023-05-02T09:00:55;22.65;;;12.98;;
76379;SDS011;65201;21.060;105.826;2023-05-02T09:05:51;24.10;;;13.25;;
76379;SDS011;65201;21.060;105.826;2023-05-02T09:08:22;19.70;;;13.30;;
76379;SDS011;65201;21.060;105.826;2023-05-02T09:10:49;21.30;;;12.60;;
76379;SDS011;65201;21.060;105.826;2023-05-02T09:16:04;21.60;;;11.40;;
76379;SDS011;65201;21.060;105.826;2023-05-02T09:18:32;22.23;;;12.07;;
76379;SDS011;65201;21.060;105.826;2023-05-02T09:20:59;26.27;;;12.37;;
76379;SDS011;65201;21.060;105.826;2023-05-02T09:23:32;22.40;;;12.50;;
76379;SDS011;65201;21.060;105.826;2023-05-02T09:25:59;22.02;;;12.18;;
76379;SDS011;65201;21.060;105.826;2023-05-02T09:28:38;18.65;;;11.77;;
76379;SDS011;65201;21.060;105.826;2023-05-02T09:31:06;22.33;;;11.82;;
76379;SDS011;65201;21.060;105.826;2023-05-02T09:33:33;16.40;;;11.43;;
76379;SDS011;65201;21.060;105.826;2023-05-02T09:35:59;19.85;;;11.93;;
76379;SDS011;65201;21.060;105.826;2023-05-02T09:38:25;20.77;;;12.38;;
76379;SDS011;65201;21.060;105.826;2023-05-02T09:40:54;20.42;;;11.77;;
76379;SDS011;65201;21.060;105.826;2023-05-02T09:43:21;17.75;;;11.45;;
76379;SDS011;65201;21.060;105.826;2023-05-02T09:45:56;18.27;;;11.40;;
76379;SDS011;65201;21.060;105.826;2023-05-02T09:48:23;20.15;;;10.80;;
76379;SDS011;65201;21.060;105.826;2023-05-02T09:50:49;20.90;;;11.73;;
76379;SDS011;65201;21.060;105.826;2023-05-02T09:53:16;15.65;;;11.20;;
76379;SDS011;65201;21.060;105.826;2023-05-02T09:55:42;18.38;;;11.13;;
76379;SDS011;65201;21.060;105.826;2023-05-02T09:58:18;19.37;;;10.77;;
76379;SDS011;65201;21.060;105.826;2023-05-02T10:00:45;18.55;;;11.35;;
76379;SDS011;65201;21.060;105.826;2023-05-02T10:03:14;16.90;;;11.02;;
76379;SDS011;65201;21.060;105.826;2023-05-02T10:05:41;19.83;;;10.63;;
76379;SDS011;65201;21.060;105.826;2023-05-02T10:08:07;19.08;;;11.40;;
76379;SDS011;65201;21.060;105.826;2023-05-02T10:13:29;17.15;;;11.02;;
76379;SDS011;65201;21.060;105.826;2023-05-02T10:16:02;15.90;;;11.40;;
76379;SDS011;65201;21.060;105.826;2023-05-02T10:18:32;17.80;;;11.05;;
76379;SDS011;65201;21.060;105.826;2023-05-02T10:21:12;16.33;;;10.57;;
76379;SDS011;65201;21.060;105.826;2023-05-02T10:23:43;18.83;;;10.93;;
76379;SDS011;65201;21.060;105.826;2023-05-02T10:26:13;14.85;;;10.23;;
76379;SDS011;65201;21.060;105.826;2023-05-02T10:28:40;19.88;;;11.00;;
76379;SDS011;65201;21.060;105.826;2023-05-02T10:31:09;19.48;;;11.07;;
76379;SDS011;65201;21.060;105.826;2023-05-02T10:33:37;19.23;;;11.52;;
76379;SDS011;65201;21.060;105.826;2023-05-02T10:36:04;16.57;;;12.20;;
76379;SDS011;65201;21.060;105.826;2023-05-02T10:38:30;20.88;;;12.13;;
76379;SDS011;65201;21.060;105.826;2023-05-02T10:40:58;16.67;;;12.77;;
76379;SDS011;65201;21.060;105.826;2023-05-02T10:43:33;22.02;;;12.73;;
76379;SDS011;65201;21.060;105.826;2023-05-02T10:45:59;22.73;;;13.48;;
76379;SDS011;65201;21.060;105.826;2023-05-02T10:48:27;21.87;;;13.60;;
76379;SDS011;65201;21.060;105.826;2023-05-02T10:50:55;18.48;;;13.48;;
76379;SDS011;65201;21.060;105.826;2023-05-02T10:53:31;23.10;;;14.38;;
76379;SDS011;65201;21.060;105.826;2023-05-02T10:58:40;22.45;;;14.75;;
76379;SDS011;65201;21.060;105.826;2023-05-02T11:03:55;26.88;;;15.18;;
76379;SDS011;65201;21.060;105.826;2023-05-02T11:06:22;22.83;;;14.02;;
76379;SDS011;65201;21.060;105.826;2023-05-02T11:08:48;23.17;;;13.95;;
76379;SDS011;65201;21.060;105.826;2023-05-02T11:13:59;21.03;;;14.17;;
76379;SDS011;65201;21.060;105.826;2023-05-02T11:16:25;22.02;;;13.93;;
76379;SDS011;65201;21.060;105.826;2023-05-02T11:18:57;23.98;;;14.18;;
76379;SDS011;65201;21.060;105.826;2023-05-02T11:21:25;19.25;;;12.68;;
76379;SDS011;65201;21.060;105.826;2023-05-02T11:24:31;21.70;;;13.27;;
76379;SDS011;65201;21.060;105.826;2023-05-02T11:26:39;18.70;;;13.83;;
76379;SDS011;65201;21.060;105.826;2023-05-02T11:29:05;18.70;;;12.98;;
76379;SDS011;65201;21.060;105.826;2023-05-02T11:34:01;19.45;;;13.50;;
76379;SDS011;65201;21.060;105.826;2023-05-02T11:36:28;26.80;;;14.07;;
76379;SDS011;65201;21.060;105.826;2023-05-02T11:38:55;21.47;;;12.83;;
76379;SDS011;65201;21.060;105.826;2023-05-02T11:41:21;20.60;;;13.32;;
76379;SDS011;65201;21.060;105.826;2023-05-02T11:43:47;21.88;;;12.50;;
76379;SDS011;65201;21.060;105.826;2023-05-02T11:46:13;20.50;;;13.00;;
76379;SDS011;65201;21.060;105.826;2023-05-02T11:48:41;20.02;;;12.70;;
76379;SDS011;65201;21.060;105.826;2023-05-02T11:51:07;20.70;;;11.67;;
76379;SDS011;65201;21.060;105.826;2023-05-02T11:53:33;16.98;;;12.02;;
76379;SDS011;65201;21.060;105.826;2023-05-02T11:56:05;19.48;;;11.70;;
76379;SDS011;65201;21.060;105.826;2023-05-02T11:58:31;16.55;;;11.77;;
76379;SDS011;65201;21.060;105.826;2023-05-02T12:00:58;18.10;;;11.45;;
76379;SDS011;65201;21.060;105.826;2023-05-02T12:03:29;22.70;;;12.67;;
76379;SDS011;65201;21.060;105.826;2023-05-02T12:05:56;17.73;;;12.18;;
76379;SDS011;65201;21.060;105.826;2023-05-02T12:08:26;19.23;;;11.90;;
76379;SDS011;65201;21.060;105.826;2023-05-02T12:10:54;19.95;;;11.75;;
76379;SDS011;65201;21.060;105.826;2023-05-02T12:13:21;18.80;;;11.38;;
76379;SDS011;65201;21.060;105.826;2023-05-02T12:15:47;21.10;;;11.60;;
76379;SDS011;65201;21.060;105.826;2023-05-02T12:18:17;19.23;;;11.15;;
76379;SDS011;65201;21.060;105.826;2023-05-02T12:20:44;25.58;;;12.05;;
76379;SDS011;65201;21.060;105.826;2023-05-02T12:23:11;19.27;;;12.05;;
76379;SDS011;65201;21.060;105.826;2023-05-02T12:25:38;18.08;;;11.50;;
76379;SDS011;65201;21.060;105.826;2023-05-02T12:28:04;18.37;;;11.30;;
76379;SDS011;65201;21.060;105.826;2023-05-02T12:30:31;16.42;;;12.00;;
76379;SDS011;65201;21.060;105.826;2023-05-02T12:32:58;22.60;;;12.25;;
76379;SDS011;65201;21.060;105.826;2023-05-02T12:35:26;19.33;;;11.45;;
76379;SDS011;65201;21.060;105.826;2023-05-02T12:37:52;16.77;;;11.43;;
76379;SDS011;65201;21.060;105.826;2023-05-02T12:40:19;19.50;;;11.93;;
76379;SDS011;65201;21.060;105.826;2023-05-02T12:43:00;16.05;;;10.85;;
76379;SDS011;65201;21.060;105.826;2023-05-02T12:45:40;19.73;;;11.60;;
76379;SDS011;65201;21.060;105.826;2023-05-02T12:50:46;17.27;;;11.80;;
76379;SDS011;65201;21.060;105.826;2023-05-02T12:53:12;15.33;;;11.50;;
76379;SDS011;65201;21.060;105.826;2023-05-02T12:55:39;18.25;;;11.43;;
76379;SDS011;65201;21.060;105.826;2023-05-02T12:58:06;20.25;;;11.63;;
76379;SDS011;65201;21.060;105.826;2023-05-02T13:00:37;20.98;;;12.60;;
76379;SDS011;65201;21.060;105.826;2023-05-02T13:03:04;17.63;;;11.50;;
76379;SDS011;65201;21.060;105.826;2023-05-02T13:05:30;17.00;;;11.57;;
76379;SDS011;65201;21.060;105.826;2023-05-02T13:07:57;19.10;;;11.85;;
76379;SDS011;65201;21.060;105.826;2023-05-02T13:10:24;20.17;;;11.73;;
76379;SDS011;65201;21.060;105.826;2023-05-02T13:12:50;15.95;;;11.07;;
76379;SDS011;65201;21.060;105.826;2023-05-02T13:15:17;17.58;;;11.55;;
76379;SDS011;65201;21.060;105.826;2023-05-02T13:17:44;18.43;;;12.20;;
76379;SDS011;65201;21.060;105.826;2023-05-02T13:20:10;18.50;;;11.50;;
76379;SDS011;65201;21.060;105.826;2023-05-02T13:22:37;17.27;;;11.38;;
76379;SDS011;65201;21.060;105.826;2023-05-02T13:25:03;18.48;;;11.50;;
76379;SDS011;65201;21.060;105.826;2023-05-02T13:27:30;18.02;;;11.02;;
76379;SDS011;65201;21.060;105.826;2023-05-02T13:29:59;23.67;;;11.57;;
76379;SDS011;65201;21.060;105.826;2023-05-02T13:32:28;19.35;;;11.32;;
76379;SDS011;65201;21.060;105.826;2023-05-02T13:34:57;18.65;;;11.98;;
76379;SDS011;65201;21.060;105.826;2023-05-02T13:37:26;17.40;;;10.82;;
76379;SDS011;65201;21.060;105.826;2023-05-02T13:39:52;18.95;;;11.68;;
76379;SDS011;65201;21.060;105.826;2023-05-02T13:42:18;16.33;;;11.50;;
76379;SDS011;65201;21.060;105.826;2023-05-02T13:44:47;20.63;;;11.80;;
76379;SDS011;65201;21.060;105.826;2023-05-02T13:47:14;14.60;;;10.73;;
76379;SDS011;65201;21.060;105.826;2023-05-02T13:49:40;16.25;;;11.52;;
76379;SDS011;65201;21.060;105.826;2023-05-02T13:52:06;16.98;;;11.48;;
76379;SDS011;65201;21.060;105.826;2023-05-02T13:54:33;17.60;;;11.37;;
76379;SDS011;65201;21.060;105.826;2023-05-02T13:56:59;18.45;;;11.73;;
76379;SDS011;65201;21.060;105.826;2023-05-02T13:59:25;18.73;;;11.75;;
76379;SDS011;65201;21.060;105.826;2023-05-02T14:01:51;18.25;;;11.75;;
76379;SDS011;65201;21.060;105.826;2023-05-02T14:04:17;18.75;;;11.13;;
76379;SDS011;65201;21.060;105.826;2023-05-02T14:06:44;17.37;;;10.90;;
76379;SDS011;65201;21.060;105.826;2023-05-02T14:09:10;17.85;;;10.95;;
76379;SDS011;65201;21.060;105.826;2023-05-02T14:11:36;16.77;;;11.25;;
76379;SDS011;65201;21.060;105.826;2023-05-02T14:14:05;22.55;;;11.98;;
76379;SDS011;65201;21.060;105.826;2023-05-02T14:16:33;18.35;;;11.48;;
76379;SDS011;65201;21.060;105.826;2023-05-02T14:19:00;18.07;;;11.70;;
76379;SDS011;65201;21.060;105.826;2023-05-02T14:21:26;19.25;;;11.73;;
76379;SDS011;65201;21.060;105.826;2023-05-02T14:23:52;18.55;;;12.18;;
76379;SDS011;65201;21.060;105.826;2023-05-02T14:26:19;17.85;;;11.30;;
76379;SDS011;65201;21.060;105.826;2023-05-02T14:28:47;17.02;;;11.32;;
76379;SDS011;65201;21.060;105.826;2023-05-02T14:31:17;16.33;;;11.30;;
76379;SDS011;65201;21.060;105.826;2023-05-02T14:33:46;17.88;;;11.05;;
76379;SDS011;65201;21.060;105.826;2023-05-02T14:36:12;17.48;;;11.55;;